Strona główna
METAR-TAF:

METAR-TAF

Lotnisko :

Petrolina, Pernambuco, Brazylia

Szerokość geograficzna: 09-21S, Długość geograficzna: 040-33W, wysokość: 385 m

Aktualna obserwacja pogody

Raport powstał 7 godziny i 53 minut temu, godzina 21:45 UTC
Wiatr 2 kt od północno-północny wschód
Temperatura 31°C
Wilgotność 55%
Ciśnienie 1010 hPa
Widzialność 10 km lub więcej
Rozproszone chmury na wysokości 3000 ft

METAR: SBPL 082145Z 03002KT 9999 SCT030 31/21 Q1010

czas: 02:38 (05:38 UTC)

Prognoza

Raport powstał 7 godziny i 38 minut temu, godzina 22:00 UTC
Prognoza ważna od 09 godzina 00 UTC do 09 godzina 24 UTC
Wiatr 7 kt od wschodnio-południowy wschód
Widzialność 10 km lub więcej
Rozproszone chmury na wysokości 2500 ft
Stopniowe zmiany
od 09 godzina 05 UTC do 09 godzina 07 UTC
Wiatr 9 kt od południowo-południowy wschód
Stopniowe zmiany
od 09 godzina 18 UTC do 09 godzina 21 UTC
Wiatr 7 kt od południowy wschód

TAF: SBPL 082200Z 0900/0924 12007KT 9999 SCT025 TN24/0906Z TX33/0916Z BECMG 0905/0907 15009KT BECMG 0918/0921 13007KT RMK PDU

Obserwacja i prognoza pogody dla ponad 4000 lotnisk (raport METAR i TAF).

Dostępne stacje oznaczono żółtymi i czerwonymi punktami na mapie.

Najedź kursorem aby zobaczyć nazwę stacji.

Kliknij aby zobaczyć obserwacje i prognozy pogody.

Aby zmienić mapę: kliknij na zielony przycisk z czarnym krzyżykiem, aby powiększyć; na zielony przycisk z myślnikiem, aby pomniejszyć; na zielone strzałki, aby przejść do map sąsiednich.


METAR-TAF: